createdAt,value
2018-11-10T00:00:51.990Z,11.17
2018-11-10T00:05:49.387Z,11.14
2018-11-10T00:10:46.759Z,10.96
2018-11-10T00:15:46.871Z,11.09
2018-11-10T00:20:44.271Z,11.07
2018-11-10T00:25:41.667Z,11.07
2018-11-10T00:30:39.099Z,11.08
2018-11-10T00:35:36.500Z,11.05
2018-11-10T00:40:34.006Z,11.01
2018-11-10T00:45:31.425Z,11.00
2018-11-10T00:50:28.829Z,10.96
2018-11-10T00:55:26.212Z,10.94
2018-11-10T01:00:23.606Z,10.86
2018-11-10T01:05:21.008Z,10.87
2018-11-10T01:10:18.450Z,10.84
2018-11-10T01:15:16.252Z,10.85
2018-11-10T01:20:14.141Z,10.81
2018-11-10T01:25:11.719Z,10.81
2018-11-10T01:30:11.751Z,10.75
2018-11-10T01:35:09.186Z,10.76
2018-11-10T01:40:08.438Z,10.76
2018-11-10T01:45:08.254Z,10.78
2018-11-10T01:50:06.650Z,10.80
2018-11-10T01:55:04.696Z,10.74
2018-11-10T02:00:02.119Z,10.73
2018-11-10T02:04:59.513Z,10.73
2018-11-10T02:09:56.991Z,10.81
2018-11-10T02:14:54.385Z,10.81
2018-11-10T02:19:51.800Z,10.87
2018-11-10T02:24:49.242Z,10.89
2018-11-10T02:29:46.630Z,10.91
2018-11-10T02:34:44.035Z,11.02
2018-11-10T02:39:41.503Z,11.10
2018-11-10T02:44:38.905Z,11.14
2018-11-10T02:49:36.409Z,11.21
2018-11-10T02:54:33.795Z,11.19
2018-11-10T02:59:31.179Z,11.28
2018-11-10T03:04:28.550Z,11.36
2018-11-10T03:09:25.971Z,11.37
2018-11-10T03:14:23.335Z,11.45
2018-11-10T03:19:20.719Z,11.53
2018-11-10T03:24:18.130Z,11.53
2018-11-10T03:29:15.500Z,11.59
2018-11-10T03:34:13.658Z,11.58
2018-11-10T03:39:12.162Z,11.58
2018-11-10T03:44:09.911Z,11.54
2018-11-10T03:49:07.305Z,11.45
2018-11-10T03:54:05.566Z,11.42
2018-11-10T03:59:03.143Z,11.40
2018-11-10T04:04:00.515Z,11.41
2018-11-10T04:08:57.887Z,11.40
2018-11-10T04:13:55.254Z,11.46
2018-11-10T04:18:52.657Z,11.43
2018-11-10T04:23:50.059Z,11.45
2018-11-10T04:28:47.434Z,11.49
2018-11-10T04:33:44.863Z,11.54
2018-11-10T04:38:42.257Z,11.57
2018-11-10T04:43:39.638Z,11.62
2018-11-10T04:48:36.994Z,11.58
2018-11-10T04:53:34.442Z,11.62
2018-11-10T04:58:31.840Z,11.70
2018-11-10T05:03:29.242Z,11.62
2018-11-10T05:08:26.626Z,11.64
2018-11-10T05:13:24.004Z,11.65
2018-11-10T05:18:21.395Z,11.67
2018-11-10T05:23:18.763Z,11.70
2018-11-10T05:28:16.138Z,11.67
2018-11-10T05:33:13.514Z,11.68
2018-11-10T05:38:10.890Z,11.70
2018-11-10T05:43:08.252Z,11.72
2018-11-10T05:48:06.046Z,11.76
2018-11-10T05:53:03.459Z,11.74
2018-11-10T05:58:00.830Z,11.67
2018-11-10T06:02:58.235Z,11.70
2018-11-10T06:07:55.627Z,11.66
2018-11-10T06:12:53.068Z,11.58
2018-11-10T06:17:50.438Z,11.55
2018-11-10T06:22:47.839Z,11.59
2018-11-10T06:27:45.338Z,11.52
2018-11-10T06:32:42.839Z,11.66
2018-11-10T06:37:40.909Z,11.80
2018-11-10T06:42:38.652Z,11.90
2018-11-10T06:47:36.474Z,12.05
2018-11-10T06:52:34.630Z,12.17
2018-11-10T06:57:32.017Z,12.35
2018-11-10T07:02:29.438Z,12.49
2018-11-10T07:07:26.923Z,12.51
2018-11-10T07:12:24.694Z,12.57
2018-11-10T07:17:22.155Z,12.61
2018-11-10T07:22:19.585Z,12.52
2018-11-10T07:27:16.987Z,12.50
2018-11-10T07:32:14.403Z,12.57
2018-11-10T07:37:11.851Z,12.57
2018-11-10T07:42:09.308Z,12.53
2018-11-10T07:47:06.761Z,12.62
2018-11-10T07:52:04.371Z,12.54
2018-11-10T07:57:01.771Z,12.53
2018-11-10T08:01:59.185Z,12.62
2018-11-10T08:06:56.567Z,12.71
2018-11-10T08:11:54.026Z,12.82
2018-11-10T08:16:52.545Z,12.92
2018-11-10T08:21:50.307Z,12.95
2018-11-10T08:26:47.717Z,13.03
2018-11-10T08:31:45.127Z,13.03
2018-11-10T08:36:42.551Z,12.92
2018-11-10T08:41:40.063Z,13.01
2018-11-10T08:46:38.488Z,13.02
2018-11-10T08:51:35.987Z,12.95
2018-11-10T08:56:33.483Z,12.82
2018-11-10T09:01:31.971Z,12.90
2018-11-10T09:06:29.368Z,12.88
2018-11-10T09:11:26.947Z,12.86
2018-11-10T09:16:27.870Z,12.77
2018-11-10T09:21:25.558Z,12.82
2018-11-10T09:26:22.870Z,12.72
2018-11-10T09:31:20.286Z,12.73
2018-11-10T09:36:17.741Z,12.57
2018-11-10T09:41:15.183Z,12.57
2018-11-10T09:46:21.756Z,12.66
2018-11-10T09:51:19.240Z,12.71
2018-11-10T09:56:16.669Z,12.69
2018-11-10T10:01:14.336Z,12.72
2018-11-10T10:06:11.631Z,12.53
2018-11-10T10:11:09.155Z,12.56
2018-11-10T10:16:16.475Z,12.52
2018-11-10T10:21:14.039Z,12.60
2018-11-10T10:26:11.422Z,12.50
2018-11-10T10:31:09.736Z,12.48
2018-11-10T10:36:07.214Z,12.53
2018-11-10T10:41:04.912Z,12.35
2018-11-10T10:46:08.926Z,12.23
2018-11-10T10:51:06.623Z,12.22
2018-11-10T10:56:04.188Z,12.18
2018-11-10T11:01:07.356Z,12.26
2018-11-10T11:06:04.899Z,12.22
2018-11-10T11:11:02.368Z,12.29
2018-11-10T11:16:18.645Z,12.43
2018-11-10T11:21:16.163Z,12.53
2018-11-10T11:26:13.598Z,12.66
2018-11-10T11:31:11.174Z,12.63
2018-11-10T11:36:08.559Z,12.56
2018-11-10T11:41:06.184Z,12.59
2018-11-10T11:51:12.533Z,12.52
2018-11-10T11:56:09.961Z,12.50
2018-11-10T12:01:07.363Z,12.64
2018-11-10T12:06:04.885Z,12.71
2018-11-10T12:11:02.302Z,12.90
2018-11-10T12:16:10.418Z,12.87
2018-11-10T12:21:08.014Z,12.89
2018-11-10T12:26:06.586Z,13.16
2018-11-10T12:31:04.616Z,13.29
2018-11-10T12:36:02.059Z,13.37
2018-11-10T12:40:59.490Z,13.32
2018-11-10T12:46:06.590Z,13.45
2018-11-10T12:51:04.641Z,13.44
2018-11-10T12:56:02.052Z,13.47
2018-11-10T13:00:59.771Z,13.65
2018-11-10T13:05:57.211Z,13.57
2018-11-10T13:10:54.790Z,13.54
2018-11-10T13:15:52.144Z,13.46
2018-11-10T13:20:49.763Z,13.63
2018-11-10T13:25:47.295Z,13.77
2018-11-10T13:30:47.553Z,13.77
2018-11-10T13:35:45.184Z,13.72
2018-11-10T13:40:42.611Z,13.79
2018-11-10T13:45:44.782Z,13.79
2018-11-10T13:50:43.024Z,13.73
2018-11-10T13:55:40.479Z,13.84
2018-11-10T14:00:39.380Z,13.82
2018-11-10T14:05:38.449Z,13.95
2018-11-10T14:10:35.898Z,13.85
2018-11-10T14:15:33.370Z,13.83
2018-11-10T14:20:30.831Z,13.76
2018-11-10T14:25:28.226Z,13.64
2018-11-10T14:30:25.636Z,13.54
2018-11-10T14:35:23.016Z,13.49
2018-11-10T14:40:20.499Z,13.49
2018-11-10T14:45:18.850Z,13.42
2018-11-10T14:50:17.061Z,13.29
2018-11-10T14:55:14.818Z,13.22
2018-11-10T15:00:14.365Z,13.14
2018-11-10T15:05:12.622Z,13.00
2018-11-10T15:10:11.766Z,12.88
2018-11-10T15:15:10.695Z,12.80
2018-11-10T15:20:09.702Z,12.76
2018-11-10T15:25:08.800Z,12.54
2018-11-10T15:30:08.727Z,12.55
2018-11-10T15:35:08.157Z,12.53
2018-11-10T15:40:06.887Z,12.52
2018-11-10T15:45:04.757Z,12.45
2018-11-10T15:50:02.159Z,12.41
2018-11-10T15:54:59.801Z,12.35
2018-11-10T15:59:57.215Z,12.40
2018-11-10T16:04:54.607Z,12.30
2018-11-10T16:09:51.983Z,12.32
2018-11-10T16:14:49.374Z,12.31
2018-11-10T16:19:46.774Z,12.36
2018-11-10T16:24:44.207Z,12.39
2018-11-10T16:29:43.602Z,12.38
2018-11-10T16:34:41.183Z,12.44
2018-11-10T16:39:40.868Z,12.49
2018-11-10T16:44:45.564Z,12.52
2018-11-10T16:49:43.111Z,12.56
2018-11-10T16:54:41.495Z,12.54
2018-11-10T16:59:38.959Z,12.64
2018-11-10T17:04:36.510Z,12.65
2018-11-10T17:09:33.926Z,12.71
2018-11-10T17:14:31.422Z,12.75
2018-11-10T17:19:29.999Z,12.74
2018-11-10T17:24:27.447Z,12.76
2018-11-10T17:29:26.231Z,12.74
2018-11-10T17:34:23.747Z,12.74
2018-11-10T17:39:21.262Z,12.73
2018-11-10T17:44:18.563Z,12.81
2018-11-10T17:49:15.949Z,12.89
2018-11-10T17:54:13.343Z,12.93
2018-11-10T17:59:10.711Z,12.96
2018-11-10T18:04:08.130Z,12.95
2018-11-10T18:09:07.427Z,13.03
2018-11-10T18:14:05.081Z,12.94
2018-11-10T18:19:04.311Z,12.97
2018-11-10T18:24:01.728Z,12.97
2018-11-10T18:28:59.113Z,12.97
2018-11-10T18:33:56.563Z,13.02
2018-11-10T18:38:54.037Z,12.96
2018-11-10T18:43:51.439Z,13.04
2018-11-10T18:48:48.878Z,13.14
2018-11-10T18:53:46.246Z,13.15
2018-11-10T18:58:43.734Z,13.06
2018-11-10T19:03:41.105Z,12.97
2018-11-10T19:08:38.474Z,12.99
2018-11-10T19:13:35.886Z,12.86
2018-11-10T19:18:33.271Z,12.87
2018-11-10T19:23:30.657Z,12.77
2018-11-10T19:28:28.119Z,12.72
2018-11-10T19:33:25.507Z,12.72
2018-11-10T19:38:22.912Z,12.75
2018-11-10T19:43:21.935Z,12.72
2018-11-10T19:48:21.025Z,12.77
2018-11-10T19:53:18.479Z,12.76
2018-11-10T19:58:15.925Z,12.75
2018-11-10T20:03:13.314Z,12.69
2018-11-10T20:08:10.694Z,12.72
2018-11-10T20:13:08.216Z,12.73
2018-11-10T20:18:05.760Z,12.76
2018-11-10T20:23:03.159Z,12.78
2018-11-10T20:28:00.647Z,12.85
2018-11-10T20:32:58.188Z,12.89
2018-11-10T20:37:55.508Z,12.98
2018-11-10T20:42:52.903Z,12.96
2018-11-10T20:47:50.290Z,12.97
2018-11-10T20:52:47.703Z,12.87
2018-11-10T20:57:45.118Z,12.97
2018-11-10T21:02:43.099Z,12.92
2018-11-10T21:07:40.481Z,12.89
2018-11-10T21:12:37.941Z,12.95
2018-11-10T21:17:35.506Z,12.82
2018-11-10T21:22:32.923Z,12.88
2018-11-10T21:27:30.310Z,12.84
2018-11-10T21:32:27.767Z,12.79
2018-11-10T21:37:25.159Z,12.79
2018-11-10T21:42:22.602Z,12.76
2018-11-10T21:47:20.038Z,12.71
2018-11-10T21:52:17.437Z,12.66
2018-11-10T21:57:14.928Z,12.56
2018-11-10T22:02:12.492Z,12.57
2018-11-10T22:07:10.989Z,12.55
2018-11-10T22:12:08.488Z,12.57
2018-11-10T22:17:05.950Z,12.39
2018-11-10T22:22:03.842Z,12.37
2018-11-10T22:27:01.327Z,12.43
2018-11-10T22:31:58.774Z,12.42
2018-11-10T22:36:56.301Z,12.37
2018-11-10T22:41:56.570Z,12.40
2018-11-10T22:47:02.340Z,12.34
2018-11-10T22:52:02.629Z,12.33
2018-11-10T22:57:01.655Z,12.39
2018-11-10T23:02:02.844Z,12.40
2018-11-10T23:07:00.281Z,12.35
2018-11-10T23:11:57.677Z,12.39
2018-11-10T23:16:59.062Z,12.43
2018-11-10T23:22:00.740Z,12.40
2018-11-10T23:27:01.964Z,12.30
2018-11-10T23:32:00.682Z,12.45
2018-11-10T23:36:58.144Z,12.25
2018-11-10T23:41:55.547Z,12.21
2018-11-10T23:46:54.323Z,12.11
2018-11-10T23:51:51.703Z,12.10
2018-11-10T23:56:49.104Z,12.25
